createdAt,value
2022-08-16T09:30:56.236Z,7390.00
2022-08-16T09:31:57.411Z,6588.00
2022-08-16T09:32:56.780Z,940.00
2022-08-16T09:33:56.693Z,6887.00
2022-08-16T09:34:58.276Z,6769.00
2022-08-16T09:35:57.352Z,6575.00
2022-08-16T09:36:56.514Z,6565.00
2022-08-16T09:38:01.073Z,6519.00
2022-08-16T09:38:59.809Z,6614.00
2022-08-16T09:39:56.337Z,6762.00
2022-08-16T09:40:56.321Z,2655.00
2022-08-16T09:41:57.411Z,6553.00
2022-08-16T09:42:59.069Z,56346.00
2022-08-16T09:43:59.943Z,739.00
2022-08-16T09:45:11.952Z,2362.00
2022-08-16T09:45:55.964Z,5315.00
2022-08-16T09:46:57.758Z,24979.00
2022-08-16T09:47:57.795Z,77058.00
2022-08-16T09:48:56.532Z,77780.00
2022-08-16T09:49:56.127Z,78775.00
2022-08-16T10:07:38.343Z,18339.00
2022-08-16T10:08:31.173Z,7698.00
2022-08-16T10:09:53.874Z,77138.00
2022-08-16T10:10:31.327Z,77924.00
2022-08-16T10:11:30.964Z,79490.00
2022-08-16T10:12:30.938Z,78020.00
2022-08-16T10:13:30.859Z,76583.00
2022-08-16T10:14:32.919Z,74772.00
2022-08-16T10:15:30.709Z,76773.00
2022-08-16T10:16:30.652Z,78244.00
2022-08-16T10:17:30.650Z,77987.00
2022-08-16T10:18:56.361Z,71206.00
2022-08-16T10:19:32.085Z,35049.00
2022-08-16T10:20:30.417Z,12044.00
2022-08-16T10:21:32.044Z,7654.00
2022-08-16T10:22:30.291Z,6825.00
2022-08-16T10:23:30.252Z,6613.00
2022-08-16T10:24:31.733Z,6431.00
2022-08-16T10:27:16.247Z,6383.00
2022-08-16T10:27:28.929Z,6487.00
2022-08-16T10:27:56.645Z,6159.00
2022-08-16T10:28:40.172Z,6100.00
2022-08-16T10:30:00.924Z,6128.00
2022-08-16T10:30:39.128Z,6105.00
2022-08-16T10:31:44.171Z,6105.00
2022-08-16T10:32:36.155Z,5988.00
2022-08-16T10:33:40.489Z,6061.00
2022-08-16T10:34:36.032Z,5887.00
2022-08-16T10:35:37.185Z,5832.00
2022-08-16T10:36:39.405Z,5867.00
2022-08-16T10:37:36.654Z,5762.00
2022-08-16T10:38:37.104Z,5701.00
2022-08-16T10:39:41.865Z,5646.00
2022-08-16T10:40:35.706Z,5803.00
2022-08-16T10:41:35.628Z,5887.00
2022-08-16T10:42:35.542Z,5645.00
2022-08-16T10:43:35.519Z,5612.00
2022-08-16T10:44:35.432Z,5607.00
2022-08-16T10:45:37.061Z,5503.00
2022-08-16T10:46:40.715Z,5379.00
2022-08-16T10:47:38.688Z,5258.00
2022-08-16T10:48:35.222Z,5247.00
